Southern Ontario METAR Reports

CYSN - St.Catharines
Updated: 08/24/2019 2:00pm
Partly cloudy
Partly cloudy
 Wind from N
Wind: N 19 km/h
Temperature: 21°C
Dew Point: 12°C
Humidity: 57%
Barometer: 1025.1 hPa
Clouds: Partly cloudy
Visibility: 24 km
Cloud details: Few Clouds 914 m
Partly cloudy 2134 m
2019/08/24 18:00 CYSN 241800Z 36010KT 350V060 15SM FEW030 SCT070 21/12 A3027 RMK SC2AC1 SLP253 DENSITY ALT 700FT
CYHM - Hamilton
Updated: 08/24/2019 2:00pm
Few Clouds
Few Clouds
 Wind from N
Wind: N 9 km/h
Temperature: 20°C
Dew Point: 10°C
Humidity: 53%
Barometer: 1025.7 hPa
Clouds: Few Clouds
Visibility: 24 km
Cloud details: Few Clouds 1250 m
Few Clouds 1524 m
2019/08/24 18:00 CYHM 241800Z 01005KT 360V110 15SM FEW041 FEW050 20/10 A3029 RMK CU2SC1 SC TR SLP258 DENSITY ALT 1200FT
 
CYYZ - Toronto
Updated: 08/24/2019 2:00pm
Mostly cloudy
Mostly cloudy
 Wind from SE
Wind: SE 19 km/h, Gust: 35 km/h
Temperature: 21°C
Dew Point: 11°C
Humidity: 53%
Barometer: 1025.4 hPa
Clouds: Mostly cloudy
Visibility: 24 km
Cloud details: Mostly cloudy 1676 m
2019/08/24 18:00 CYYZ 241800Z 14010G19KT 15SM BKN055 21/11 A3028 RMK SC5 SLP254 DENSITY ALT 1100FT
CYKF - Waterloo
Updated: 08/24/2019 2:00pm
Mostly cloudy
Mostly cloudy
 Wind from NE
Wind: NE 17 km/h
Temperature: 21°C
Dew Point: 10°C
Humidity: 50%
Barometer: 1025.4 hPa
Clouds: Mostly cloudy
Visibility: 14 km
Cloud details: Mostly cloudy 1433 m
2019/08/24 18:00 CYKF 241800Z AUTO 05009KT 020V130 9SM BKN047 21/10 A3028 RMK SLP257 DENSITY ALT 1600FT
 
CYXU - London
Updated: 08/24/2019 2:00pm
Partly cloudy
Partly cloudy
 Wind from ESE
Wind: ESE 17 km/h
Temperature: 21°C
Dew Point: 9°C
Humidity: 46%
Barometer: 1025.4 hPa
Clouds: Partly cloudy
Visibility: 24 km
Cloud details: Partly cloudy 1585 m
2019/08/24 18:00 CYXU 241800Z 11009KT 040V170 15SM SCT052 21/09 A3028 RMK SC4 SLP257 DENSITY ALT 1500FT
CYQG - Windsor
Updated: 08/24/2019 2:00pm
Clear
Clear
 Wind from E
Wind: E 17 km/h, Gust: 28 km/h
Temperature: 21°C
Dew Point: 10°C
Humidity: 50%
Barometer: 1025.7 hPa
Clouds: Clear
Visibility: 14 km
2019/08/24 18:00 CYQG 241800Z AUTO 08009G15KT 050V110 9SM CLR 21/10 A3029 RMK SLP259 DENSITY ALT 1000FT
 
CYZR - Sarnia
Updated: 08/24/2019 2:00pm
Few Clouds
Few Clouds
 Wind from NNE
Wind: NNE 11 km/h
Temperature: 21°C
Dew Point: 11°C
Humidity: 53%
Barometer: 1025.7 hPa
Clouds: Few Clouds
Visibility: 14 km
Cloud details: Few Clouds 1372 m
2019/08/24 18:00 CYZR 241800Z AUTO 02006KT 350V080 9SM FEW045 21/11 A3029 RMK SLP260 DENSITY ALT 900FT
CYVV - Wiarton
Updated: 08/24/2019 2:00pm
Few Clouds
Few Clouds
 Wind from NNE
Wind: NNE 9 km/h
Temperature: 19°C
Dew Point: 11°C
Humidity: 60%
Barometer: 1026.4 hPa
Clouds: Few Clouds
Visibility: 24 km
Cloud details: Few Clouds 975 m
2019/08/24 18:00 CYVV 241800Z 02005KT 350V070 15SM FEW032 19/11 A3031 RMK CU2 SLP269 DENSITY ALT 1000FT
 
CYPQ - Peterborough
Updated: 08/24/2019 2:00pm
Mostly cloudy
Mostly cloudy
 Wind from NNE
Wind: NNE 11 km/h
Temperature: 21°C
Dew Point: 11°C
Humidity: 53%
Barometer: 1025.1 hPa
Clouds: Mostly cloudy
Visibility: 14 km
Cloud details: Mostly cloudy 1524 m
2019/08/24 18:00 CYPQ 241800Z AUTO 02006KT 9SM BKN050 21/11 A3027 RMK SLP255 DENSITY ALT 1000FT
CYTR - Trenton
Updated: 08/24/2019 2:00pm
Mostly cloudy
Mostly cloudy
 Wind from ESE
Wind: ESE 7 km/h
Temperature: 21°C
Dew Point: 12°C
Humidity: 57%
Barometer: 1025.1 hPa
Clouds: Mostly cloudy
Visibility: 24 km
Cloud details: Mostly cloudy 1372 m
2019/08/24 18:00 CYTR 241800Z 12004KT 15SM BKN045 21/12 A3027 RMK SC6 SLP251